Goode, Johanna
United StatesWomanBorn 19842012 – 2025Runner id 381392
Events
28
2012 – 2025
Best pace
9.324
km/h · 2015
Best finish
9th
of 65 · 2019
Distance raced
1,849
km · splits not double-counted
Pace over time
km/h · higher is faster
Pace over time: 28 races from 2012 to 2025, ranging from 4.19 to 9.32 kilometres per hour, where higher is faster. A second, age-graded series is drawn above it; the gap between the two is the age credit.
- Actual pace
- Age-graded pace
Results
| Date | Event | Distance | Result | Pace km/h | Placing |
|---|---|---|---|---|---|
| 2012-05-20 | Dirty German Endurance Fest 50 kmUnited States | 50km | 6:32:55 h | 7.635 | 77/118 |
| 2012-10-07 | 50km | 6:05:48 h | 8.201 | 136/231 | |
| 2013-05-26 | Dirty German Endurance Fest 50 kmUnited States | 50km | 7:18:14 h | 6.846 | 100/117 |
| 2013-09-22 | 12h | 64.373 km | 5.364 | 17/37 | |
| 2014-03-22 | 50km | 7:14:01 h | 6.912 | 289/382 | |
| 2014-05-18 | 50mi | 9:14:59 h | 8.699 | 32/76 | |
| 2014-09-28 | Sloppy Cuckoo 12 hour ChallengeUnited States | 12h | 52.706 km | 4.392 | 46/68 |
| 2014-11-15 | 50mi | 12:44:32 h | 6.315 | 234/261 | |
| 2015-02-28 | 40mi | 8:57:15 h | 7.189 | 127/129 | |
| 2015-05-17 | Dirty German Endurance Fest 50 kmUnited States | 50km | 5:21:44 h | 9.324 | 31/128 |
| 2015-06-13 | 50mi | 12:43:57 h | 6.320 | 24/29 | |
| 2015-07-18 | Lone Ranger 24 hr Urban UltraUnited States | 24h | 108.920 km | 4.538 | 36/128 |
| 2015-09-06 | Labor Pain 12 Hour Endurance Trail RunUnited States | 12h | 72.420 km | 6.035 | 29/170 |
| 2016-01-16 | PHUNT 50K RunUnited States | 50km | 6:39:58 h | 7.501 | 73/104 |
| 2016-03-06 | 40mi | 8:23:22 h | 7.673 | 62/99 | |
| 2016-05-15 | Dirty German Endurance Fest 50 MileUnited States | 50mi | 8:48:39 h | 9.133 | 39/120 |
| 2016-06-12 | 50km | 7:05:00 h | 7.059 | 19/26 | |
| 2016-09-17 | 50km | 6:48:34 h | 7.343 | 79/151 | |
| 2017-04-29 | 100mi | 27:03:32 h | 5.948 | 29/66 | |
| 2017-05-13 | Dirty German Endurance Fest 50 kmUnited States | 50km | 7:44:43 h | 6.456 | 125/153 |
| 2018-05-12 | 50km | 6:42:49 h | 7.448 | 102/190 | |
| 2018-09-15 | 50km | 6:44:38 h | 7.414 | 68/150 | |
| 2018-11-03 | 55mi | 12:35:05 h | 7.033 | 27/28 | |
| 2019-06-08 | 24h | 100.584 km | 4.191 | 9/65 | |
| 2021-05-08 | 50km | 6:55:44 h | 7.216 | 149/219 | |
| 2022-09-10 | 50km | 7:06:00 h | 7.042 | 86/145 | |
| 2023-05-20 | 50km | 6:56:27 h | 7.204 | 97/157 | |
| 2025-05-10 | 50km | 7:20:51 h | 6.805 | 131/176 |